sensor_id;sensor_type;location;lat;lon;timestamp;P1;durP1;ratioP1;P2;durP2;ratioP2
23228;SDS011;11783;50.350;6.576;2022-07-11T00:01:37;4.63;;;2.05;;
23228;SDS011;11783;50.350;6.576;2022-07-11T00:04:02;5.53;;;2.20;;
23228;SDS011;11783;50.350;6.576;2022-07-11T00:06:28;4.22;;;2.08;;
23228;SDS011;11783;50.350;6.576;2022-07-11T00:08:53;4.60;;;2.05;;
23228;SDS011;11783;50.350;6.576;2022-07-11T00:11:19;6.65;;;2.13;;
23228;SDS011;11783;50.350;6.576;2022-07-11T00:13:44;6.07;;;2.20;;
23228;SDS011;11783;50.350;6.576;2022-07-11T00:16:09;6.00;;;2.13;;
23228;SDS011;11783;50.350;6.576;2022-07-11T00:18:34;5.88;;;2.15;;
23228;SDS011;11783;50.350;6.576;2022-07-11T00:21:00;6.05;;;2.47;;
23228;SDS011;11783;50.350;6.576;2022-07-11T00:23:25;5.05;;;1.95;;
23228;SDS011;11783;50.350;6.576;2022-07-11T00:25:50;4.45;;;2.05;;
23228;SDS011;11783;50.350;6.576;2022-07-11T00:28:16;4.95;;;2.10;;
23228;SDS011;11783;50.350;6.576;2022-07-11T00:30:41;5.05;;;2.38;;
23228;SDS011;11783;50.350;6.576;2022-07-11T00:33:06;6.50;;;2.25;;
23228;SDS011;11783;50.350;6.576;2022-07-11T00:35:32;6.78;;;2.17;;
23228;SDS011;11783;50.350;6.576;2022-07-11T00:37:57;5.82;;;2.00;;
23228;SDS011;11783;50.350;6.576;2022-07-11T00:40:22;4.22;;;1.98;;
23228;SDS011;11783;50.350;6.576;2022-07-11T00:42:48;3.58;;;1.90;;
23228;SDS011;11783;50.350;6.576;2022-07-11T00:45:13;4.25;;;2.10;;
23228;SDS011;11783;50.350;6.576;2022-07-11T00:47:39;5.60;;;2.08;;
23228;SDS011;11783;50.350;6.576;2022-07-11T00:50:04;8.77;;;2.45;;
23228;SDS011;11783;50.350;6.576;2022-07-11T00:52:30;4.40;;;1.90;;
23228;SDS011;11783;50.350;6.576;2022-07-11T00:54:55;4.85;;;2.03;;
23228;SDS011;11783;50.350;6.576;2022-07-11T00:57:22;5.57;;;2.20;;
23228;SDS011;11783;50.350;6.576;2022-07-11T00:59:47;6.63;;;2.20;;
23228;SDS011;11783;50.350;6.576;2022-07-11T01:02:13;5.35;;;2.10;;
23228;SDS011;11783;50.350;6.576;2022-07-11T01:04:38;3.58;;;1.85;;
23228;SDS011;11783;50.350;6.576;2022-07-11T01:07:04;4.88;;;2.03;;
23228;SDS011;11783;50.350;6.576;2022-07-11T01:09:29;3.97;;;2.15;;
23228;SDS011;11783;50.350;6.576;2022-07-11T01:11:55;4.32;;;1.92;;
23228;SDS011;11783;50.350;6.576;2022-07-11T01:14:20;5.38;;;1.88;;
23228;SDS011;11783;50.350;6.576;2022-07-11T01:16:46;4.00;;;1.80;;
23228;SDS011;11783;50.350;6.576;2022-07-11T01:19:11;4.63;;;2.00;;
23228;SDS011;11783;50.350;6.576;2022-07-11T01:21:37;5.00;;;2.08;;
23228;SDS011;11783;50.350;6.576;2022-07-11T01:24:06;4.28;;;1.83;;
23228;SDS011;11783;50.350;6.576;2022-07-11T01:26:33;4.10;;;1.90;;
23228;SDS011;11783;50.350;6.576;2022-07-11T01:29:06;4.90;;;2.13;;
23228;SDS011;11783;50.350;6.576;2022-07-11T01:31:37;6.18;;;2.22;;
23228;SDS011;11783;50.350;6.576;2022-07-11T01:34:04;5.15;;;1.92;;
23228;SDS011;11783;50.350;6.576;2022-07-11T01:36:30;4.50;;;1.75;;
23228;SDS011;11783;50.350;6.576;2022-07-11T01:38:55;7.25;;;2.08;;
23228;SDS011;11783;50.350;6.576;2022-07-11T01:41:20;4.90;;;1.95;;
23228;SDS011;11783;50.350;6.576;2022-07-11T01:43:46;3.45;;;1.98;;
23228;SDS011;11783;50.350;6.576;2022-07-11T01:46:11;6.00;;;2.17;;
23228;SDS011;11783;50.350;6.576;2022-07-11T01:48:36;5.28;;;2.10;;
23228;SDS011;11783;50.350;6.576;2022-07-11T01:51:02;4.78;;;2.13;;
23228;SDS011;11783;50.350;6.576;2022-07-11T01:53:27;5.20;;;2.10;;
23228;SDS011;11783;50.350;6.576;2022-07-11T01:55:52;4.10;;;2.10;;
23228;SDS011;11783;50.350;6.576;2022-07-11T01:58:18;5.72;;;2.13;;
23228;SDS011;11783;50.350;6.576;2022-07-11T02:00:43;4.32;;;2.30;;
23228;SDS011;11783;50.350;6.576;2022-07-11T02:03:09;4.20;;;2.08;;
23228;SDS011;11783;50.350;6.576;2022-07-11T02:05:34;4.15;;;2.13;;
23228;SDS011;11783;50.350;6.576;2022-07-11T02:07:59;6.57;;;2.40;;
23228;SDS011;11783;50.350;6.576;2022-07-11T02:10:36;4.38;;;2.03;;
23228;SDS011;11783;50.350;6.576;2022-07-11T02:13:02;5.57;;;2.05;;
23228;SDS011;11783;50.350;6.576;2022-07-11T02:15:28;4.75;;;2.30;;
23228;SDS011;11783;50.350;6.576;2022-07-11T02:17:54;5.93;;;2.30;;
23228;SDS011;11783;50.350;6.576;2022-07-11T02:20:20;4.85;;;2.00;;
23228;SDS011;11783;50.350;6.576;2022-07-11T02:22:46;4.15;;;2.33;;
23228;SDS011;11783;50.350;6.576;2022-07-11T02:25:13;4.95;;;2.17;;
23228;SDS011;11783;50.350;6.576;2022-07-11T02:27:39;5.20;;;2.15;;
23228;SDS011;11783;50.350;6.576;2022-07-11T02:30:04;5.50;;;2.30;;
23228;SDS011;11783;50.350;6.576;2022-07-11T02:32:30;4.85;;;2.40;;
23228;SDS011;11783;50.350;6.576;2022-07-11T02:34:55;6.32;;;2.35;;
23228;SDS011;11783;50.350;6.576;2022-07-11T02:37:21;6.85;;;2.50;;
23228;SDS011;11783;50.350;6.576;2022-07-11T02:39:46;4.95;;;2.50;;
23228;SDS011;11783;50.350;6.576;2022-07-11T02:42:12;5.65;;;2.45;;
23228;SDS011;11783;50.350;6.576;2022-07-11T02:44:37;4.75;;;2.60;;
23228;SDS011;11783;50.350;6.576;2022-07-11T02:47:03;6.25;;;2.67;;
23228;SDS011;11783;50.350;6.576;2022-07-11T02:49:28;4.47;;;2.60;;
23228;SDS011;11783;50.350;6.576;2022-07-11T02:51:55;4.10;;;2.67;;
23228;SDS011;11783;50.350;6.576;2022-07-11T02:54:21;4.82;;;2.70;;
23228;SDS011;11783;50.350;6.576;2022-07-11T02:56:46;5.25;;;2.60;;
23228;SDS011;11783;50.350;6.576;2022-07-11T02:59:11;5.80;;;2.55;;
23228;SDS011;11783;50.350;6.576;2022-07-11T03:01:37;7.88;;;2.85;;
23228;SDS011;11783;50.350;6.576;2022-07-11T03:04:02;6.18;;;2.70;;
23228;SDS011;11783;50.350;6.576;2022-07-11T03:06:27;5.63;;;2.85;;
23228;SDS011;11783;50.350;6.576;2022-07-11T03:08:53;8.38;;;2.83;;
23228;SDS011;11783;50.350;6.576;2022-07-11T03:11:18;5.43;;;2.50;;
23228;SDS011;11783;50.350;6.576;2022-07-11T03:13:44;5.05;;;2.70;;
23228;SDS011;11783;50.350;6.576;2022-07-11T03:16:10;4.65;;;3.20;;
23228;SDS011;11783;50.350;6.576;2022-07-11T03:18:35;4.60;;;2.83;;
23228;SDS011;11783;50.350;6.576;2022-07-11T03:21:00;4.80;;;3.00;;
23228;SDS011;11783;50.350;6.576;2022-07-11T03:23:26;6.97;;;3.45;;
23228;SDS011;11783;50.350;6.576;2022-07-11T03:25:51;5.68;;;3.75;;
23228;SDS011;11783;50.350;6.576;2022-07-11T03:28:16;5.40;;;3.10;;
23228;SDS011;11783;50.350;6.576;2022-07-11T03:30:41;6.00;;;3.17;;
23228;SDS011;11783;50.350;6.576;2022-07-11T03:33:07;6.32;;;3.35;;
23228;SDS011;11783;50.350;6.576;2022-07-11T03:35:32;5.38;;;3.20;;
23228;SDS011;11783;50.350;6.576;2022-07-11T03:38:06;5.50;;;3.53;;
23228;SDS011;11783;50.350;6.576;2022-07-11T03:40:32;6.57;;;3.80;;
23228;SDS011;11783;50.350;6.576;2022-07-11T03:42:57;7.45;;;3.75;;
23228;SDS011;11783;50.350;6.576;2022-07-11T03:45:23;6.72;;;3.42;;
23228;SDS011;11783;50.350;6.576;2022-07-11T03:47:48;6.97;;;3.70;;
23228;SDS011;11783;50.350;6.576;2022-07-11T03:50:14;6.75;;;3.42;;
23228;SDS011;11783;50.350;6.576;2022-07-11T03:52:39;4.65;;;3.50;;
23228;SDS011;11783;50.350;6.576;2022-07-11T03:55:05;7.35;;;3.70;;
23228;SDS011;11783;50.350;6.576;2022-07-11T03:57:30;4.40;;;2.90;;
23228;SDS011;11783;50.350;6.576;2022-07-11T03:59:56;5.63;;;3.35;;
23228;SDS011;11783;50.350;6.576;2022-07-11T04:02:21;4.68;;;3.10;;
23228;SDS011;11783;50.350;6.576;2022-07-11T04:04:46;7.15;;;3.42;;
23228;SDS011;11783;50.350;6.576;2022-07-11T04:07:12;8.07;;;3.55;;
23228;SDS011;11783;50.350;6.576;2022-07-11T04:09:38;5.18;;;3.25;;
23228;SDS011;11783;50.350;6.576;2022-07-11T04:12:03;8.68;;;3.33;;
23228;SDS011;11783;50.350;6.576;2022-07-11T04:14:29;5.35;;;3.20;;
23228;SDS011;11783;50.350;6.576;2022-07-11T04:16:54;5.90;;;3.40;;
23228;SDS011;11783;50.350;6.576;2022-07-11T04:19:19;5.25;;;3.13;;
23228;SDS011;11783;50.350;6.576;2022-07-11T04:21:45;7.38;;;3.53;;
23228;SDS011;11783;50.350;6.576;2022-07-11T04:24:10;7.68;;;4.22;;
23228;SDS011;11783;50.350;6.576;2022-07-11T04:26:35;6.20;;;3.63;;
23228;SDS011;11783;50.350;6.576;2022-07-11T04:29:00;8.43;;;4.18;;
23228;SDS011;11783;50.350;6.576;2022-07-11T04:31:26;6.88;;;3.97;;
23228;SDS011;11783;50.350;6.576;2022-07-11T04:33:51;6.25;;;3.78;;
23228;SDS011;11783;50.350;6.576;2022-07-11T04:36:16;5.38;;;3.38;;
23228;SDS011;11783;50.350;6.576;2022-07-11T04:38:41;5.10;;;3.45;;
23228;SDS011;11783;50.350;6.576;2022-07-11T04:41:09;6.70;;;3.38;;
23228;SDS011;11783;50.350;6.576;2022-07-11T04:43:34;5.47;;;3.70;;
23228;SDS011;11783;50.350;6.576;2022-07-11T04:46:02;6.82;;;4.15;;
23228;SDS011;11783;50.350;6.576;2022-07-11T04:48:30;5.30;;;3.50;;
23228;SDS011;11783;50.350;6.576;2022-07-11T04:50:55;8.13;;;4.05;;
23228;SDS011;11783;50.350;6.576;2022-07-11T04:53:20;6.75;;;4.07;;
23228;SDS011;11783;50.350;6.576;2022-07-11T04:55:46;6.40;;;3.90;;
23228;SDS011;11783;50.350;6.576;2022-07-11T04:58:11;7.95;;;4.20;;
23228;SDS011;11783;50.350;6.576;2022-07-11T05:00:36;7.70;;;4.22;;
23228;SDS011;11783;50.350;6.576;2022-07-11T05:03:02;7.68;;;4.20;;
23228;SDS011;11783;50.350;6.576;2022-07-11T05:05:28;6.95;;;3.83;;
23228;SDS011;11783;50.350;6.576;2022-07-11T05:07:53;5.97;;;3.88;;
23228;SDS011;11783;50.350;6.576;2022-07-11T05:10:18;8.55;;;4.20;;
23228;SDS011;11783;50.350;6.576;2022-07-11T05:12:44;6.97;;;3.90;;
23228;SDS011;11783;50.350;6.576;2022-07-11T05:15:09;8.45;;;4.05;;
23228;SDS011;11783;50.350;6.576;2022-07-11T05:17:35;7.70;;;3.92;;
23228;SDS011;11783;50.350;6.576;2022-07-11T05:20:00;6.47;;;3.97;;
23228;SDS011;11783;50.350;6.576;2022-07-11T05:22:26;7.40;;;3.88;;
23228;SDS011;11783;50.350;6.576;2022-07-11T05:24:51;7.32;;;3.92;;
23228;SDS011;11783;50.350;6.576;2022-07-11T05:27:17;7.32;;;3.58;;
23228;SDS011;11783;50.350;6.576;2022-07-11T05:29:42;7.78;;;3.90;;
23228;SDS011;11783;50.350;6.576;2022-07-11T05:32:08;7.45;;;3.60;;
23228;SDS011;11783;50.350;6.576;2022-07-11T05:34:34;7.20;;;3.65;;
23228;SDS011;11783;50.350;6.576;2022-07-11T05:37:00;4.68;;;3.40;;
23228;SDS011;11783;50.350;6.576;2022-07-11T05:39:25;6.50;;;3.33;;
23228;SDS011;11783;50.350;6.576;2022-07-11T05:41:50;6.57;;;3.35;;
23228;SDS011;11783;50.350;6.576;2022-07-11T05:44:17;6.93;;;3.80;;
23228;SDS011;11783;50.350;6.576;2022-07-11T05:46:46;6.90;;;3.40;;
23228;SDS011;11783;50.350;6.576;2022-07-11T05:49:11;6.25;;;4.30;;
23228;SDS011;11783;50.350;6.576;2022-07-11T05:51:37;13.40;;;6.30;;
23228;SDS011;11783;50.350;6.576;2022-07-11T05:54:03;8.48;;;5.60;;
23228;SDS011;11783;50.350;6.576;2022-07-11T05:56:29;11.18;;;6.97;;
23228;SDS011;11783;50.350;6.576;2022-07-11T05:58:55;9.18;;;6.00;;
23228;SDS011;11783;50.350;6.576;2022-07-11T06:01:21;12.07;;;7.88;;
23228;SDS011;11783;50.350;6.576;2022-07-11T06:03:47;13.45;;;8.70;;
23228;SDS011;11783;50.350;6.576;2022-07-11T06:06:12;17.75;;;9.70;;
23228;SDS011;11783;50.350;6.576;2022-07-11T06:08:37;16.30;;;9.45;;
23228;SDS011;11783;50.350;6.576;2022-07-11T06:11:06;15.27;;;9.50;;
23228;SDS011;11783;50.350;6.576;2022-07-11T06:13:32;15.20;;;9.30;;
23228;SDS011;11783;50.350;6.576;2022-07-11T06:15:58;16.67;;;10.95;;
23228;SDS011;11783;50.350;6.576;2022-07-11T06:18:24;15.82;;;11.25;;
23228;SDS011;11783;50.350;6.576;2022-07-11T06:20:49;13.52;;;9.35;;
23228;SDS011;11783;50.350;6.576;2022-07-11T06:23:15;15.85;;;10.05;;
23228;SDS011;11783;50.350;6.576;2022-07-11T06:25:41;16.38;;;11.13;;
23228;SDS011;11783;50.350;6.576;2022-07-11T06:28:06;15.93;;;10.15;;
23228;SDS011;11783;50.350;6.576;2022-07-11T06:30:32;21.83;;;11.85;;
23228;SDS011;11783;50.350;6.576;2022-07-11T06:32:58;17.75;;;11.23;;
23228;SDS011;11783;50.350;6.576;2022-07-11T06:35:23;20.98;;;12.63;;
23228;SDS011;11783;50.350;6.576;2022-07-11T06:37:49;21.60;;;12.50;;
23228;SDS011;11783;50.350;6.576;2022-07-11T06:40:14;18.73;;;11.18;;
23228;SDS011;11783;50.350;6.576;2022-07-11T06:42:42;18.25;;;11.63;;
23228;SDS011;11783;50.350;6.576;2022-07-11T06:45:08;21.70;;;12.68;;
23228;SDS011;11783;50.350;6.576;2022-07-11T06:47:33;20.30;;;11.80;;
23228;SDS011;11783;50.350;6.576;2022-07-11T06:49:59;17.40;;;10.80;;
23228;SDS011;11783;50.350;6.576;2022-07-11T06:52:24;16.30;;;10.05;;
23228;SDS011;11783;50.350;6.576;2022-07-11T06:54:49;17.77;;;10.35;;
23228;SDS011;11783;50.350;6.576;2022-07-11T06:57:15;17.67;;;11.48;;
23228;SDS011;11783;50.350;6.576;2022-07-11T06:59:40;21.27;;;11.57;;
23228;SDS011;11783;50.350;6.576;2022-07-11T07:02:05;20.42;;;11.52;;
23228;SDS011;11783;50.350;6.576;2022-07-11T07:04:31;17.95;;;10.77;;
23228;SDS011;11783;50.350;6.576;2022-07-11T07:06:56;17.75;;;11.40;;
23228;SDS011;11783;50.350;6.576;2022-07-11T07:09:23;19.35;;;11.32;;
23228;SDS011;11783;50.350;6.576;2022-07-11T07:11:49;18.30;;;11.75;;
23228;SDS011;11783;50.350;6.576;2022-07-11T07:14:15;17.48;;;10.35;;
23228;SDS011;11783;50.350;6.576;2022-07-11T07:16:40;14.38;;;9.68;;
23228;SDS011;11783;50.350;6.576;2022-07-11T07:19:05;14.27;;;10.02;;
23228;SDS011;11783;50.350;6.576;2022-07-11T07:21:30;19.60;;;10.32;;
23228;SDS011;11783;50.350;6.576;2022-07-11T07:23:56;16.48;;;11.32;;
23228;SDS011;11783;50.350;6.576;2022-07-11T07:26:21;22.55;;;12.18;;
23228;SDS011;11783;50.350;6.576;2022-07-11T07:28:47;18.15;;;11.60;;
23228;SDS011;11783;50.350;6.576;2022-07-11T07:31:12;16.92;;;10.38;;
23228;SDS011;11783;50.350;6.576;2022-07-11T07:33:37;16.33;;;10.32;;
23228;SDS011;11783;50.350;6.576;2022-07-11T07:36:03;14.70;;;9.25;;
23228;SDS011;11783;50.350;6.576;2022-07-11T07:38:28;17.73;;;9.95;;
23228;SDS011;11783;50.350;6.576;2022-07-11T07:40:54;16.77;;;10.15;;
23228;SDS011;11783;50.350;6.576;2022-07-11T07:43:19;16.60;;;9.65;;
23228;SDS011;11783;50.350;6.576;2022-07-11T07:45:44;14.70;;;9.90;;
23228;SDS011;11783;50.350;6.576;2022-07-11T07:48:10;13.15;;;8.35;;
23228;SDS011;11783;50.350;6.576;2022-07-11T07:50:35;14.10;;;8.65;;
23228;SDS011;11783;50.350;6.576;2022-07-11T07:53:00;21.30;;;10.48;;
23228;SDS011;11783;50.350;6.576;2022-07-11T07:55:26;15.68;;;9.73;;
23228;SDS011;11783;50.350;6.576;2022-07-11T07:57:51;14.68;;;9.68;;
23228;SDS011;11783;50.350;6.576;2022-07-11T08:00:16;14.65;;;9.30;;
23228;SDS011;11783;50.350;6.576;2022-07-11T08:03:04;17.77;;;9.60;;
23228;SDS011;11783;50.350;6.576;2022-07-11T08:05:30;13.82;;;9.75;;
23228;SDS011;11783;50.350;6.576;2022-07-11T08:07:56;16.95;;;10.30;;
23228;SDS011;11783;50.350;6.576;2022-07-11T08:10:21;18.33;;;10.60;;
23228;SDS011;11783;50.350;6.576;2022-07-11T08:12:46;13.20;;;9.13;;
23228;SDS011;11783;50.350;6.576;2022-07-11T08:15:12;14.48;;;8.63;;
23228;SDS011;11783;50.350;6.576;2022-07-11T08:17:37;14.18;;;8.82;;
23228;SDS011;11783;50.350;6.576;2022-07-11T08:20:03;14.80;;;9.85;;
23228;SDS011;11783;50.350;6.576;2022-07-11T08:22:29;14.93;;;9.63;;
23228;SDS011;11783;50.350;6.576;2022-07-11T08:24:54;18.30;;;9.85;;
23228;SDS011;11783;50.350;6.576;2022-07-11T08:27:19;17.80;;;10.90;;
23228;SDS011;11783;50.350;6.576;2022-07-11T08:29:46;16.52;;;9.82;;
23228;SDS011;11783;50.350;6.576;2022-07-11T08:32:11;18.58;;;10.85;;
23228;SDS011;11783;50.350;6.576;2022-07-11T08:34:37;14.65;;;9.23;;
23228;SDS011;11783;50.350;6.576;2022-07-11T08:37:03;18.25;;;10.20;;
23228;SDS011;11783;50.350;6.576;2022-07-11T08:39:28;15.52;;;10.23;;
23228;SDS011;11783;50.350;6.576;2022-07-11T08:41:53;17.15;;;9.55;;
23228;SDS011;11783;50.350;6.576;2022-07-11T08:44:19;13.88;;;9.65;;
23228;SDS011;11783;50.350;6.576;2022-07-11T08:46:44;15.70;;;9.27;;
23228;SDS011;11783;50.350;6.576;2022-07-11T08:49:11;14.60;;;9.77;;
23228;SDS011;11783;50.350;6.576;2022-07-11T08:51:37;18.10;;;9.73;;
23228;SDS011;11783;50.350;6.576;2022-07-11T08:54:03;14.23;;;8.90;;
23228;SDS011;11783;50.350;6.576;2022-07-11T08:56:28;17.58;;;10.18;;
23228;SDS011;11783;50.350;6.576;2022-07-11T08:58:54;16.15;;;9.43;;
23228;SDS011;11783;50.350;6.576;2022-07-11T09:01:22;16.58;;;9.63;;
23228;SDS011;11783;50.350;6.576;2022-07-11T09:03:52;15.63;;;9.00;;
23228;SDS011;11783;50.350;6.576;2022-07-11T09:06:19;11.88;;;7.78;;
23228;SDS011;11783;50.350;6.576;2022-07-11T09:08:44;12.02;;;8.65;;
23228;SDS011;11783;50.350;6.576;2022-07-11T09:11:09;16.30;;;9.57;;
23228;SDS011;11783;50.350;6.576;2022-07-11T09:13:35;13.35;;;8.60;;
23228;SDS011;11783;50.350;6.576;2022-07-11T09:16:02;16.17;;;8.68;;
23228;SDS011;11783;50.350;6.576;2022-07-11T09:18:30;12.63;;;7.60;;
23228;SDS011;11783;50.350;6.576;2022-07-11T09:21:01;11.38;;;7.82;;
23228;SDS011;11783;50.350;6.576;2022-07-11T09:23:45;12.35;;;6.78;;
23228;SDS011;11783;50.350;6.576;2022-07-11T09:26:30;10.68;;;6.70;;
23228;SDS011;11783;50.350;6.576;2022-07-11T09:29:29;10.35;;;7.15;;
23228;SDS011;11783;50.350;6.576;2022-07-11T09:31:52;9.57;;;5.93;;
23228;SDS011;11783;50.350;6.576;2022-07-11T09:34:19;9.57;;;6.10;;
23228;SDS011;11783;50.350;6.576;2022-07-11T09:36:49;9.20;;;6.00;;
23228;SDS011;11783;50.350;6.576;2022-07-11T09:39:20;9.13;;;6.45;;
23228;SDS011;11783;50.350;6.576;2022-07-11T09:41:48;9.32;;;6.20;;
23228;SDS011;11783;50.350;6.576;2022-07-11T09:44:19;9.35;;;6.40;;
23228;SDS011;11783;50.350;6.576;2022-07-11T09:46:52;11.07;;;7.10;;
23228;SDS011;11783;50.350;6.576;2022-07-11T09:49:28;10.27;;;6.50;;
23228;SDS011;11783;50.350;6.576;2022-07-11T09:51:57;9.93;;;6.60;;
23228;SDS011;11783;50.350;6.576;2022-07-11T09:54:31;9.13;;;6.57;;
23228;SDS011;11783;50.350;6.576;2022-07-11T09:56:56;10.70;;;6.32;;
23228;SDS011;11783;50.350;6.576;2022-07-11T09:59:22;8.68;;;6.63;;
23228;SDS011;11783;50.350;6.576;2022-07-11T10:01:48;9.27;;;6.28;;
23228;SDS011;11783;50.350;6.576;2022-07-11T10:04:13;8.60;;;6.38;;
23228;SDS011;11783;50.350;6.576;2022-07-11T10:06:38;9.82;;;5.80;;
23228;SDS011;11783;50.350;6.576;2022-07-11T10:09:04;10.80;;;6.93;;
23228;SDS011;11783;50.350;6.576;2022-07-11T10:11:31;8.80;;;6.00;;
23228;SDS011;11783;50.350;6.576;2022-07-11T10:13:58;7.65;;;5.28;;
23228;SDS011;11783;50.350;6.576;2022-07-11T10:24:52;7.97;;;4.97;;
23228;SDS011;11783;50.350;6.576;2022-07-11T10:29:54;7.55;;;5.10;;
23228;SDS011;11783;50.350;6.576;2022-07-11T10:32:20;8.40;;;5.10;;
23228;SDS011;11783;50.350;6.576;2022-07-11T10:34:46;7.50;;;5.07;;
23228;SDS011;11783;50.350;6.576;2022-07-11T10:37:29;8.40;;;5.07;;
23228;SDS011;11783;50.350;6.576;2022-07-11T10:39:58;8.27;;;5.15;;
23228;SDS011;11783;50.350;6.576;2022-07-11T10:42:26;8.05;;;4.57;;
23228;SDS011;11783;50.350;6.576;2022-07-11T10:45:02;7.28;;;4.78;;
23228;SDS011;11783;50.350;6.576;2022-07-11T10:50:22;9.05;;;5.00;;
23228;SDS011;11783;50.350;6.576;2022-07-11T10:52:55;7.40;;;4.47;;
23228;SDS011;11783;50.350;6.576;2022-07-11T10:58:18;7.20;;;3.88;;
23228;SDS011;11783;50.350;6.576;2022-07-11T11:00:48;6.68;;;4.40;;
23228;SDS011;11783;50.350;6.576;2022-07-11T11:03:31;6.63;;;4.40;;
23228;SDS011;11783;50.350;6.576;2022-07-11T11:05:57;6.93;;;3.95;;
23228;SDS011;11783;50.350;6.576;2022-07-11T11:11:04;7.75;;;4.55;;
23228;SDS011;11783;50.350;6.576;2022-07-11T11:13:30;6.80;;;4.43;;
23228;SDS011;11783;50.350;6.576;2022-07-11T11:15:59;6.50;;;3.85;;
23228;SDS011;11783;50.350;6.576;2022-07-11T11:23:31;7.13;;;4.68;;
23228;SDS011;11783;50.350;6.576;2022-07-11T11:26:14;6.72;;;4.22;;
23228;SDS011;11783;50.350;6.576;2022-07-11T11:28:57;8.90;;;4.18;;
23228;SDS011;11783;50.350;6.576;2022-07-11T11:31:24;6.78;;;3.50;;
23228;SDS011;11783;50.350;6.576;2022-07-11T11:33:50;6.68;;;3.78;;
23228;SDS011;11783;50.350;6.576;2022-07-11T11:36:18;6.90;;;3.72;;
23228;SDS011;11783;50.350;6.576;2022-07-11T11:38:45;4.82;;;3.10;;
23228;SDS011;11783;50.350;6.576;2022-07-11T11:41:13;6.88;;;3.05;;
23228;SDS011;11783;50.350;6.576;2022-07-11T11:43:42;4.82;;;2.90;;
23228;SDS011;11783;50.350;6.576;2022-07-11T11:46:11;4.80;;;2.90;;
23228;SDS011;11783;50.350;6.576;2022-07-11T11:48:38;4.50;;;2.42;;
23228;SDS011;11783;50.350;6.576;2022-07-11T11:53:46;4.07;;;2.58;;
23228;SDS011;11783;50.350;6.576;2022-07-11T11:58:44;6.18;;;2.40;;
23228;SDS011;11783;50.350;6.576;2022-07-11T12:01:10;4.82;;;2.38;;
23228;SDS011;11783;50.350;6.576;2022-07-11T12:03:58;4.72;;;2.35;;
23228;SDS011;11783;50.350;6.576;2022-07-11T12:06:25;5.75;;;2.80;;
23228;SDS011;11783;50.350;6.576;2022-07-11T12:09:02;5.40;;;2.70;;
23228;SDS011;11783;50.350;6.576;2022-07-11T12:11:33;5.28;;;2.72;;
23228;SDS011;11783;50.350;6.576;2022-07-11T12:14:01;5.75;;;3.05;;
23228;SDS011;11783;50.350;6.576;2022-07-11T12:16:28;5.60;;;3.33;;
23228;SDS011;11783;50.350;6.576;2022-07-11T12:19:15;4.25;;;2.80;;
23228;SDS011;11783;50.350;6.576;2022-07-11T12:21:45;5.20;;;3.00;;
23228;SDS011;11783;50.350;6.576;2022-07-11T12:24:15;6.40;;;2.90;;
23228;SDS011;11783;50.350;6.576;2022-07-11T12:26:41;5.90;;;2.50;;
23228;SDS011;11783;50.350;6.576;2022-07-11T12:31:46;4.35;;;2.85;;
23228;SDS011;11783;50.350;6.576;2022-07-11T12:34:19;5.85;;;2.45;;
23228;SDS011;11783;50.350;6.576;2022-07-11T12:36:46;5.85;;;2.42;;
23228;SDS011;11783;50.350;6.576;2022-07-11T12:42:32;5.05;;;2.70;;
23228;SDS011;11783;50.350;6.576;2022-07-11T12:47:25;6.60;;;3.30;;
23228;SDS011;11783;50.350;6.576;2022-07-11T12:49:52;5.70;;;3.63;;
23228;SDS011;11783;50.350;6.576;2022-07-11T12:52:17;7.07;;;4.15;;
23228;SDS011;11783;50.350;6.576;2022-07-11T12:54:43;6.85;;;4.10;;
23228;SDS011;11783;50.350;6.576;2022-07-11T12:57:09;6.88;;;3.97;;
23228;SDS011;11783;50.350;6.576;2022-07-11T12:59:39;6.05;;;4.13;;
23228;SDS011;11783;50.350;6.576;2022-07-11T13:02:06;9.00;;;4.22;;
23228;SDS011;11783;50.350;6.576;2022-07-11T13:04:36;6.28;;;3.60;;
23228;SDS011;11783;50.350;6.576;2022-07-11T13:07:19;8.02;;;3.85;;
23228;SDS011;11783;50.350;6.576;2022-07-11T13:10:06;7.07;;;3.65;;
23228;SDS011;11783;50.350;6.576;2022-07-11T13:12:33;8.55;;;3.60;;
23228;SDS011;11783;50.350;6.576;2022-07-11T13:15:03;7.25;;;3.60;;
23228;SDS011;11783;50.350;6.576;2022-07-11T13:17:37;6.47;;;3.45;;
23228;SDS011;11783;50.350;6.576;2022-07-11T13:20:08;10.73;;;4.10;;
23228;SDS011;11783;50.350;6.576;2022-07-11T13:22:37;7.43;;;4.20;;
23228;SDS011;11783;50.350;6.576;2022-07-11T13:25:03;7.57;;;4.03;;
23228;SDS011;11783;50.350;6.576;2022-07-11T13:27:29;9.23;;;4.50;;
23228;SDS011;11783;50.350;6.576;2022-07-11T13:29:55;7.30;;;4.07;;
23228;SDS011;11783;50.350;6.576;2022-07-11T13:32:21;6.10;;;3.83;;
23228;SDS011;11783;50.350;6.576;2022-07-11T13:34:46;9.82;;;4.75;;
23228;SDS011;11783;50.350;6.576;2022-07-11T13:37:13;7.55;;;4.50;;
23228;SDS011;11783;50.350;6.576;2022-07-11T13:39:39;8.68;;;4.50;;
23228;SDS011;11783;50.350;6.576;2022-07-11T13:42:05;8.57;;;4.75;;
23228;SDS011;11783;50.350;6.576;2022-07-11T13:44:30;8.25;;;4.55;;
23228;SDS011;11783;50.350;6.576;2022-07-11T13:46:55;6.40;;;4.07;;
23228;SDS011;11783;50.350;6.576;2022-07-11T13:49:23;8.02;;;4.50;;
23228;SDS011;11783;50.350;6.576;2022-07-11T13:51:49;8.45;;;4.90;;
23228;SDS011;11783;50.350;6.576;2022-07-11T13:54:14;9.10;;;5.25;;
23228;SDS011;11783;50.350;6.576;2022-07-11T13:56:39;8.15;;;4.78;;
23228;SDS011;11783;50.350;6.576;2022-07-11T13:59:05;7.47;;;4.68;;
23228;SDS011;11783;50.350;6.576;2022-07-11T14:01:30;8.63;;;4.60;;
23228;SDS011;11783;50.350;6.576;2022-07-11T14:03:55;6.85;;;4.70;;
23228;SDS011;11783;50.350;6.576;2022-07-11T14:06:22;8.55;;;4.70;;
23228;SDS011;11783;50.350;6.576;2022-07-11T14:08:47;7.78;;;4.38;;
23228;SDS011;11783;50.350;6.576;2022-07-11T14:11:13;7.70;;;4.28;;
23228;SDS011;11783;50.350;6.576;2022-07-11T14:13:38;8.20;;;4.45;;
23228;SDS011;11783;50.350;6.576;2022-07-11T14:16:03;9.35;;;3.83;;
23228;SDS011;11783;50.350;6.576;2022-07-11T14:18:31;6.55;;;3.50;;
23228;SDS011;11783;50.350;6.576;2022-07-11T14:20:57;5.95;;;3.45;;
23228;SDS011;11783;50.350;6.576;2022-07-11T14:23:22;8.45;;;4.07;;
23228;SDS011;11783;50.350;6.576;2022-07-11T14:25:50;6.28;;;3.92;;
23228;SDS011;11783;50.350;6.576;2022-07-11T14:28:16;7.22;;;4.60;;
23228;SDS011;11783;50.350;6.576;2022-07-11T14:30:42;6.07;;;3.97;;
23228;SDS011;11783;50.350;6.576;2022-07-11T14:33:08;7.57;;;3.95;;
23228;SDS011;11783;50.350;6.576;2022-07-11T14:35:34;8.77;;;4.40;;
23228;SDS011;11783;50.350;6.576;2022-07-11T14:37:59;8.68;;;4.88;;
23228;SDS011;11783;50.350;6.576;2022-07-11T14:40:25;7.10;;;4.57;;
23228;SDS011;11783;50.350;6.576;2022-07-11T14:42:50;7.47;;;4.47;;
23228;SDS011;11783;50.350;6.576;2022-07-11T14:45:16;7.63;;;3.80;;
23228;SDS011;11783;50.350;6.576;2022-07-11T14:47:42;6.30;;;4.10;;
23228;SDS011;11783;50.350;6.576;2022-07-11T14:50:07;5.95;;;3.88;;
23228;SDS011;11783;50.350;6.576;2022-07-11T14:52:33;7.20;;;3.83;;
23228;SDS011;11783;50.350;6.576;2022-07-11T14:54:59;6.55;;;3.90;;
23228;SDS011;11783;50.350;6.576;2022-07-11T14:57:24;7.63;;;4.40;;
23228;SDS011;11783;50.350;6.576;2022-07-11T14:59:50;6.03;;;4.03;;
23228;SDS011;11783;50.350;6.576;2022-07-11T15:02:16;8.70;;;5.38;;
23228;SDS011;11783;50.350;6.576;2022-07-11T15:04:41;6.82;;;4.40;;
23228;SDS011;11783;50.350;6.576;2022-07-11T15:07:06;8.00;;;4.30;;
23228;SDS011;11783;50.350;6.576;2022-07-11T15:09:50;7.50;;;4.50;;
23228;SDS011;11783;50.350;6.576;2022-07-11T15:12:34;7.30;;;4.50;;
23228;SDS011;11783;50.350;6.576;2022-07-11T15:15:01;8.18;;;5.65;;
23228;SDS011;11783;50.350;6.576;2022-07-11T15:17:27;7.00;;;4.93;;
23228;SDS011;11783;50.350;6.576;2022-07-11T15:19:52;7.97;;;4.70;;